La Grange, Kentucky
Current Conditions -  °F | °C
As of 5:53 PM on Thursday 27 Nov 2014 (Local Time) from KLOU Reporting Station
Overcast Overcast  
Wind Chill: 19°   Ceiling: 2800
Heat Index: 30°   Visibility: 9mi
Dew Point: 20°   Wind: 16mph
Humidity: 66%   Direction: 270°W
Pressure: 30.42"   Gusts: 22mph
Location:  38.4°N, 85.38°W
Report Text: KLOU 272253Z 27014G19KT 9SM OVC028 M01/M07 A3042 RMK AO2 SLP308 T10111067
Loading
Personal Weather Stations






























Interactive Weather Map New forecast layout! Learn more

10-Day Weather Forecast

Advertisements
Track Severe Weather on mobile